sensor_id;sensor_type;location;lat;lon;timestamp;P1;durP1;ratioP1;P2;durP2;ratioP2
33930;SDS011;20215;53.130;6.408;2022-08-30T00:00:36;0.47;;;0.47;;
33930;SDS011;20215;53.130;6.408;2022-08-30T00:03:21;0.73;;;0.60;;
33930;SDS011;20215;53.130;6.408;2022-08-30T00:05:47;0.98;;;0.55;;
33930;SDS011;20215;53.130;6.408;2022-08-30T00:08:13;0.73;;;0.70;;
33930;SDS011;20215;53.130;6.408;2022-08-30T00:10:38;1.40;;;0.98;;
33930;SDS011;20215;53.130;6.408;2022-08-30T00:13:05;1.17;;;0.70;;
33930;SDS011;20215;53.130;6.408;2022-08-30T00:15:32;0.85;;;0.73;;
33930;SDS011;20215;53.130;6.408;2022-08-30T00:17:58;0.75;;;0.70;;
33930;SDS011;20215;53.130;6.408;2022-08-30T00:20:27;1.77;;;0.63;;
33930;SDS011;20215;53.130;6.408;2022-08-30T00:22:54;1.00;;;0.70;;
33930;SDS011;20215;53.130;6.408;2022-08-30T00:25:20;1.35;;;0.90;;
33930;SDS011;20215;53.130;6.408;2022-08-30T00:27:46;0.82;;;0.60;;
33930;SDS011;20215;53.130;6.408;2022-08-30T00:30:13;0.75;;;0.73;;
33930;SDS011;20215;53.130;6.408;2022-08-30T00:32:39;1.00;;;0.70;;
33930;SDS011;20215;53.130;6.408;2022-08-30T00:35:06;1.00;;;0.50;;
33930;SDS011;20215;53.130;6.408;2022-08-30T00:37:33;1.27;;;0.50;;
33930;SDS011;20215;53.130;6.408;2022-08-30T00:39:58;1.17;;;0.55;;
33930;SDS011;20215;53.130;6.408;2022-08-30T00:42:24;0.70;;;0.70;;
33930;SDS011;20215;53.130;6.408;2022-08-30T00:44:50;0.55;;;0.52;;
33930;SDS011;20215;53.130;6.408;2022-08-30T00:47:16;0.50;;;0.50;;
33930;SDS011;20215;53.130;6.408;2022-08-30T00:49:43;0.80;;;0.45;;
33930;SDS011;20215;53.130;6.408;2022-08-30T00:52:11;0.68;;;0.60;;
33930;SDS011;20215;53.130;6.408;2022-08-30T00:54:39;0.82;;;0.70;;
33930;SDS011;20215;53.130;6.408;2022-08-30T00:57:09;0.60;;;0.60;;
33930;SDS011;20215;53.130;6.408;2022-08-30T00:59:36;0.50;;;0.50;;
33930;SDS011;20215;53.130;6.408;2022-08-30T01:02:02;0.63;;;0.50;;
33930;SDS011;20215;53.130;6.408;2022-08-30T01:04:28;1.65;;;0.57;;
33930;SDS011;20215;53.130;6.408;2022-08-30T01:06:55;1.42;;;0.90;;
33930;SDS011;20215;53.130;6.408;2022-08-30T01:09:21;0.47;;;0.47;;
33930;SDS011;20215;53.130;6.408;2022-08-30T01:11:47;0.55;;;0.50;;
33930;SDS011;20215;53.130;6.408;2022-08-30T01:14:13;0.75;;;0.60;;
33930;SDS011;20215;53.130;6.408;2022-08-30T01:16:41;0.70;;;0.52;;
33930;SDS011;20215;53.130;6.408;2022-08-30T01:21:56;0.98;;;0.60;;
33930;SDS011;20215;53.130;6.408;2022-08-30T01:24:27;0.60;;;0.60;;
33930;SDS011;20215;53.130;6.408;2022-08-30T01:26:54;0.77;;;0.60;;
33930;SDS011;20215;53.130;6.408;2022-08-30T01:29:21;1.33;;;0.77;;
33930;SDS011;20215;53.130;6.408;2022-08-30T01:31:49;0.63;;;0.50;;
33930;SDS011;20215;53.130;6.408;2022-08-30T01:34:14;0.65;;;0.50;;
33930;SDS011;20215;53.130;6.408;2022-08-30T01:36:41;0.40;;;0.40;;
33930;SDS011;20215;53.130;6.408;2022-08-30T01:39:09;1.63;;;0.47;;
33930;SDS011;20215;53.130;6.408;2022-08-30T01:41:37;1.02;;;0.82;;
33930;SDS011;20215;53.130;6.408;2022-08-30T01:44:06;1.13;;;0.60;;
33930;SDS011;20215;53.130;6.408;2022-08-30T01:46:35;1.75;;;0.70;;
33930;SDS011;20215;53.130;6.408;2022-08-30T01:49:04;0.60;;;0.57;;
33930;SDS011;20215;53.130;6.408;2022-08-30T01:51:32;0.60;;;0.60;;
33930;SDS011;20215;53.130;6.408;2022-08-30T01:53:58;0.60;;;0.60;;
33930;SDS011;20215;53.130;6.408;2022-08-30T01:56:25;0.90;;;0.60;;
33930;SDS011;20215;53.130;6.408;2022-08-30T01:58:52;1.10;;;0.68;;
33930;SDS011;20215;53.130;6.408;2022-08-30T02:01:19;1.40;;;0.60;;
33930;SDS011;20215;53.130;6.408;2022-08-30T02:03:49;0.65;;;0.65;;
33930;SDS011;20215;53.130;6.408;2022-08-30T02:06:15;0.70;;;0.50;;
33930;SDS011;20215;53.130;6.408;2022-08-30T02:08:42;0.40;;;0.40;;
33930;SDS011;20215;53.130;6.408;2022-08-30T02:11:09;0.50;;;0.50;;
33930;SDS011;20215;53.130;6.408;2022-08-30T02:13:36;0.63;;;0.40;;
33930;SDS011;20215;53.130;6.408;2022-08-30T02:16:03;0.47;;;0.45;;
33930;SDS011;20215;53.130;6.408;2022-08-30T02:18:31;1.10;;;0.60;;
33930;SDS011;20215;53.130;6.408;2022-08-30T02:20:59;1.35;;;0.60;;
33930;SDS011;20215;53.130;6.408;2022-08-30T02:23:25;0.82;;;0.30;;
33930;SDS011;20215;53.130;6.408;2022-08-30T02:25:51;0.50;;;0.50;;
33930;SDS011;20215;53.130;6.408;2022-08-30T02:28:16;0.60;;;0.50;;
33930;SDS011;20215;53.130;6.408;2022-08-30T02:30:43;0.63;;;0.50;;
33930;SDS011;20215;53.130;6.408;2022-08-30T02:33:10;0.70;;;0.70;;
33930;SDS011;20215;53.130;6.408;2022-08-30T02:35:36;0.60;;;0.60;;
33930;SDS011;20215;53.130;6.408;2022-08-30T02:38:02;0.77;;;0.60;;
33930;SDS011;20215;53.130;6.408;2022-08-30T02:40:28;0.50;;;0.50;;
33930;SDS011;20215;53.130;6.408;2022-08-30T02:42:53;0.60;;;0.60;;
33930;SDS011;20215;53.130;6.408;2022-08-30T02:45:19;0.70;;;0.40;;
33930;SDS011;20215;53.130;6.408;2022-08-30T02:47:45;0.82;;;0.52;;
33930;SDS011;20215;53.130;6.408;2022-08-30T02:50:11;0.45;;;0.45;;
33930;SDS011;20215;53.130;6.408;2022-08-30T02:52:37;0.57;;;0.57;;
33930;SDS011;20215;53.130;6.408;2022-08-30T02:55:03;0.40;;;0.40;;
33930;SDS011;20215;53.130;6.408;2022-08-30T02:57:30;1.48;;;0.63;;
33930;SDS011;20215;53.130;6.408;2022-08-30T02:59:56;0.30;;;0.30;;
33930;SDS011;20215;53.130;6.408;2022-08-30T03:02:22;0.40;;;0.35;;
33930;SDS011;20215;53.130;6.408;2022-08-30T03:04:48;0.52;;;0.50;;
33930;SDS011;20215;53.130;6.408;2022-08-30T03:07:14;1.13;;;0.40;;
33930;SDS011;20215;53.130;6.408;2022-08-30T03:09:40;0.30;;;0.30;;
33930;SDS011;20215;53.130;6.408;2022-08-30T03:12:07;0.63;;;0.30;;
33930;SDS011;20215;53.130;6.408;2022-08-30T03:14:34;0.43;;;0.43;;
33930;SDS011;20215;53.130;6.408;2022-08-30T03:17:01;0.50;;;0.50;;
33930;SDS011;20215;53.130;6.408;2022-08-30T03:19:31;0.50;;;0.50;;
33930;SDS011;20215;53.130;6.408;2022-08-30T03:21:57;0.30;;;0.30;;
33930;SDS011;20215;53.130;6.408;2022-08-30T03:24:23;0.35;;;0.35;;
33930;SDS011;20215;53.130;6.408;2022-08-30T03:26:50;0.30;;;0.30;;
33930;SDS011;20215;53.130;6.408;2022-08-30T03:29:16;0.70;;;0.47;;
33930;SDS011;20215;53.130;6.408;2022-08-30T03:31:41;1.15;;;0.43;;
33930;SDS011;20215;53.130;6.408;2022-08-30T03:34:07;0.50;;;0.50;;
33930;SDS011;20215;53.130;6.408;2022-08-30T03:36:35;0.68;;;0.68;;
33930;SDS011;20215;53.130;6.408;2022-08-30T03:39:02;0.63;;;0.40;;
33930;SDS011;20215;53.130;6.408;2022-08-30T03:41:32;0.60;;;0.60;;
33930;SDS011;20215;53.130;6.408;2022-08-30T03:43:58;0.40;;;0.40;;
33930;SDS011;20215;53.130;6.408;2022-08-30T03:46:24;0.40;;;0.40;;
33930;SDS011;20215;53.130;6.408;2022-08-30T03:48:51;0.50;;;0.50;;
33930;SDS011;20215;53.130;6.408;2022-08-30T03:51:20;0.80;;;0.40;;
33930;SDS011;20215;53.130;6.408;2022-08-30T03:53:49;0.57;;;0.50;;
33930;SDS011;20215;53.130;6.408;2022-08-30T03:56:14;0.68;;;0.45;;
33930;SDS011;20215;53.130;6.408;2022-08-30T03:58:40;0.50;;;0.28;;
33930;SDS011;20215;53.130;6.408;2022-08-30T04:01:06;0.35;;;0.35;;
33930;SDS011;20215;53.130;6.408;2022-08-30T04:03:32;0.30;;;0.30;;
33930;SDS011;20215;53.130;6.408;2022-08-30T04:05:58;0.47;;;0.38;;
33930;SDS011;20215;53.130;6.408;2022-08-30T04:08:25;0.63;;;0.60;;
33930;SDS011;20215;53.130;6.408;2022-08-30T04:10:51;0.80;;;0.47;;
33930;SDS011;20215;53.130;6.408;2022-08-30T04:13:18;0.70;;;0.40;;
33930;SDS011;20215;53.130;6.408;2022-08-30T04:15:44;0.65;;;0.45;;
33930;SDS011;20215;53.130;6.408;2022-08-30T04:18:09;0.57;;;0.40;;
33930;SDS011;20215;53.130;6.408;2022-08-30T04:20:36;0.75;;;0.47;;
33930;SDS011;20215;53.130;6.408;2022-08-30T04:23:03;0.75;;;0.55;;
33930;SDS011;20215;53.130;6.408;2022-08-30T04:25:31;0.30;;;0.30;;
33930;SDS011;20215;53.130;6.408;2022-08-30T04:27:57;0.65;;;0.65;;
33930;SDS011;20215;53.130;6.408;2022-08-30T04:30:23;0.55;;;0.47;;
33930;SDS011;20215;53.130;6.408;2022-08-30T04:32:48;0.40;;;0.32;;
33930;SDS011;20215;53.130;6.408;2022-08-30T04:35:14;0.35;;;0.35;;
33930;SDS011;20215;53.130;6.408;2022-08-30T04:37:40;0.40;;;0.30;;
33930;SDS011;20215;53.130;6.408;2022-08-30T04:40:05;0.50;;;0.40;;
33930;SDS011;20215;53.130;6.408;2022-08-30T04:42:32;0.40;;;0.38;;
33930;SDS011;20215;53.130;6.408;2022-08-30T04:45:08;0.85;;;0.40;;
33930;SDS011;20215;53.130;6.408;2022-08-30T04:47:36;0.70;;;0.30;;
33930;SDS011;20215;53.130;6.408;2022-08-30T04:50:04;1.38;;;0.38;;
33930;SDS011;20215;53.130;6.408;2022-08-30T04:52:31;1.17;;;0.30;;
33930;SDS011;20215;53.130;6.408;2022-08-30T04:54:57;0.63;;;0.50;;
33930;SDS011;20215;53.130;6.408;2022-08-30T04:57:23;0.70;;;0.60;;
33930;SDS011;20215;53.130;6.408;2022-08-30T04:59:50;0.30;;;0.30;;
33930;SDS011;20215;53.130;6.408;2022-08-30T05:02:16;8.93;;;2.03;;
33930;SDS011;20215;53.130;6.408;2022-08-30T05:04:42;5.95;;;2.45;;
33930;SDS011;20215;53.130;6.408;2022-08-30T05:07:29;24.08;;;4.50;;
33930;SDS011;20215;53.130;6.408;2022-08-30T05:09:55;14.35;;;4.45;;
33930;SDS011;20215;53.130;6.408;2022-08-30T05:12:21;38.92;;;8.68;;
33930;SDS011;20215;53.130;6.408;2022-08-30T05:14:47;27.77;;;5.70;;
33930;SDS011;20215;53.130;6.408;2022-08-30T05:17:13;14.98;;;3.83;;
33930;SDS011;20215;53.130;6.408;2022-08-30T05:19:39;29.85;;;7.25;;
33930;SDS011;20215;53.130;6.408;2022-08-30T05:22:05;22.85;;;5.82;;
33930;SDS011;20215;53.130;6.408;2022-08-30T05:24:30;21.33;;;3.65;;
33930;SDS011;20215;53.130;6.408;2022-08-30T05:26:56;22.83;;;4.57;;
33930;SDS011;20215;53.130;6.408;2022-08-30T05:29:22;17.00;;;4.88;;
33930;SDS011;20215;53.130;6.408;2022-08-30T05:31:48;16.42;;;3.97;;
33930;SDS011;20215;53.130;6.408;2022-08-30T05:34:14;14.02;;;4.13;;
33930;SDS011;20215;53.130;6.408;2022-08-30T05:36:40;19.60;;;3.63;;
33930;SDS011;20215;53.130;6.408;2022-08-30T05:39:06;23.55;;;4.25;;
33930;SDS011;20215;53.130;6.408;2022-08-30T05:41:32;20.25;;;4.45;;
33930;SDS011;20215;53.130;6.408;2022-08-30T05:43:59;16.92;;;4.10;;
33930;SDS011;20215;53.130;6.408;2022-08-30T05:46:26;16.00;;;3.67;;
33930;SDS011;20215;53.130;6.408;2022-08-30T05:48:56;19.00;;;3.60;;
33930;SDS011;20215;53.130;6.408;2022-08-30T05:51:26;14.77;;;3.35;;
33930;SDS011;20215;53.130;6.408;2022-08-30T05:53:53;19.52;;;4.88;;
33930;SDS011;20215;53.130;6.408;2022-08-30T05:56:21;15.95;;;4.38;;
33930;SDS011;20215;53.130;6.408;2022-08-30T05:58:52;12.63;;;4.00;;
33930;SDS011;20215;53.130;6.408;2022-08-30T06:01:22;10.80;;;3.40;;
33930;SDS011;20215;53.130;6.408;2022-08-30T06:03:56;13.85;;;3.42;;
33930;SDS011;20215;53.130;6.408;2022-08-30T06:06:24;12.88;;;3.70;;
33930;SDS011;20215;53.130;6.408;2022-08-30T06:08:51;12.45;;;2.72;;
33930;SDS011;20215;53.130;6.408;2022-08-30T06:11:18;15.95;;;3.42;;
33930;SDS011;20215;53.130;6.408;2022-08-30T06:13:45;8.10;;;2.90;;
33930;SDS011;20215;53.130;6.408;2022-08-30T06:16:11;8.50;;;3.28;;
33930;SDS011;20215;53.130;6.408;2022-08-30T06:18:38;10.68;;;3.10;;
33930;SDS011;20215;53.130;6.408;2022-08-30T06:21:04;6.57;;;2.85;;
33930;SDS011;20215;53.130;6.408;2022-08-30T06:23:30;11.30;;;2.17;;
33930;SDS011;20215;53.130;6.408;2022-08-30T06:25:56;12.25;;;2.83;;
33930;SDS011;20215;53.130;6.408;2022-08-30T06:28:26;11.15;;;2.40;;
33930;SDS011;20215;53.130;6.408;2022-08-30T06:30:52;7.07;;;1.80;;
33930;SDS011;20215;53.130;6.408;2022-08-30T06:33:18;11.13;;;2.65;;
33930;SDS011;20215;53.130;6.408;2022-08-30T06:35:43;8.02;;;2.92;;
33930;SDS011;20215;53.130;6.408;2022-08-30T06:38:09;7.97;;;2.10;;
33930;SDS011;20215;53.130;6.408;2022-08-30T06:40:34;6.28;;;2.22;;
33930;SDS011;20215;53.130;6.408;2022-08-30T06:43:00;7.35;;;1.95;;
33930;SDS011;20215;53.130;6.408;2022-08-30T06:45:26;10.98;;;3.13;;
33930;SDS011;20215;53.130;6.408;2022-08-30T06:47:52;12.18;;;2.50;;
33930;SDS011;20215;53.130;6.408;2022-08-30T06:50:17;6.60;;;1.67;;
33930;SDS011;20215;53.130;6.408;2022-08-30T06:52:43;6.95;;;1.60;;
33930;SDS011;20215;53.130;6.408;2022-08-30T06:55:10;6.85;;;2.13;;
33930;SDS011;20215;53.130;6.408;2022-08-30T06:57:37;7.03;;;1.42;;
33930;SDS011;20215;53.130;6.408;2022-08-30T07:00:04;7.68;;;1.77;;
33930;SDS011;20215;53.130;6.408;2022-08-30T07:02:32;5.32;;;1.95;;
33930;SDS011;20215;53.130;6.408;2022-08-30T07:04:58;21.92;;;1.60;;
33930;SDS011;20215;53.130;6.408;2022-08-30T07:07:26;4.03;;;2.05;;
33930;SDS011;20215;53.130;6.408;2022-08-30T07:09:51;4.03;;;1.48;;
33930;SDS011;20215;53.130;6.408;2022-08-30T07:12:17;4.10;;;1.35;;
33930;SDS011;20215;53.130;6.408;2022-08-30T07:14:43;2.90;;;1.33;;
33930;SDS011;20215;53.130;6.408;2022-08-30T07:17:09;6.93;;;1.70;;
33930;SDS011;20215;53.130;6.408;2022-08-30T07:19:54;4.55;;;1.42;;
33930;SDS011;20215;53.130;6.408;2022-08-30T07:22:19;2.85;;;0.98;;
33930;SDS011;20215;53.130;6.408;2022-08-30T07:24:45;3.53;;;1.38;;
33930;SDS011;20215;53.130;6.408;2022-08-30T07:27:11;6.93;;;1.73;;
33930;SDS011;20215;53.130;6.408;2022-08-30T07:29:37;3.53;;;1.45;;
33930;SDS011;20215;53.130;6.408;2022-08-30T07:32:03;4.43;;;0.90;;
33930;SDS011;20215;53.130;6.408;2022-08-30T07:34:29;3.28;;;1.33;;
33930;SDS011;20215;53.130;6.408;2022-08-30T07:36:54;2.95;;;0.77;;
33930;SDS011;20215;53.130;6.408;2022-08-30T07:39:20;4.20;;;1.13;;
33930;SDS011;20215;53.130;6.408;2022-08-30T07:41:46;4.10;;;1.33;;
33930;SDS011;20215;53.130;6.408;2022-08-30T07:44:13;3.70;;;1.13;;
33930;SDS011;20215;53.130;6.408;2022-08-30T07:46:39;2.85;;;0.75;;
33930;SDS011;20215;53.130;6.408;2022-08-30T07:49:05;4.57;;;0.80;;
33930;SDS011;20215;53.130;6.408;2022-08-30T07:51:31;1.20;;;0.73;;
33930;SDS011;20215;53.130;6.408;2022-08-30T07:53:57;3.88;;;1.08;;
33930;SDS011;20215;53.130;6.408;2022-08-30T07:56:24;1.25;;;0.80;;
33930;SDS011;20215;53.130;6.408;2022-08-30T07:58:50;2.20;;;0.90;;
33930;SDS011;20215;53.130;6.408;2022-08-30T08:01:17;3.08;;;0.65;;
33930;SDS011;20215;53.130;6.408;2022-08-30T08:03:43;2.10;;;1.10;;
33930;SDS011;20215;53.130;6.408;2022-08-30T08:06:10;3.75;;;1.38;;
33930;SDS011;20215;53.130;6.408;2022-08-30T08:08:37;2.85;;;1.17;;
33930;SDS011;20215;53.130;6.408;2022-08-30T08:13:33;0.90;;;0.60;;
33930;SDS011;20215;53.130;6.408;2022-08-30T08:15:59;4.53;;;1.10;;
33930;SDS011;20215;53.130;6.408;2022-08-30T08:18:25;1.25;;;0.95;;
33930;SDS011;20215;53.130;6.408;2022-08-30T08:20:51;1.02;;;0.57;;
33930;SDS011;20215;53.130;6.408;2022-08-30T08:23:16;1.25;;;0.90;;
33930;SDS011;20215;53.130;6.408;2022-08-30T08:25:42;0.68;;;0.65;;
33930;SDS011;20215;53.130;6.408;2022-08-30T08:28:08;1.02;;;0.60;;
33930;SDS011;20215;53.130;6.408;2022-08-30T08:30:34;2.78;;;1.13;;
33930;SDS011;20215;53.130;6.408;2022-08-30T08:33:01;1.65;;;0.68;;
33930;SDS011;20215;53.130;6.408;2022-08-30T08:35:27;2.33;;;0.80;;
33930;SDS011;20215;53.130;6.408;2022-08-30T08:37:53;3.80;;;1.27;;
33930;SDS011;20215;53.130;6.408;2022-08-30T08:40:19;0.93;;;0.73;;
33930;SDS011;20215;53.130;6.408;2022-08-30T08:48:04;0.65;;;0.60;;
33930;SDS011;20215;53.130;6.408;2022-08-30T08:50:31;1.40;;;0.70;;
33930;SDS011;20215;53.130;6.408;2022-08-30T08:53:00;0.60;;;0.60;;
33930;SDS011;20215;53.130;6.408;2022-08-30T08:55:47;0.82;;;0.60;;
33930;SDS011;20215;53.130;6.408;2022-08-30T08:58:18;0.75;;;0.60;;
33930;SDS011;20215;53.130;6.408;2022-08-30T09:00:55;2.05;;;0.60;;
33930;SDS011;20215;53.130;6.408;2022-08-30T09:03:23;1.17;;;0.65;;
33930;SDS011;20215;53.130;6.408;2022-08-30T09:05:50;0.63;;;0.57;;
33930;SDS011;20215;53.130;6.408;2022-08-30T09:08:18;0.70;;;0.70;;
33930;SDS011;20215;53.130;6.408;2022-08-30T09:10:48;1.00;;;0.90;;
33930;SDS011;20215;53.130;6.408;2022-08-30T09:13:22;1.85;;;0.70;;
33930;SDS011;20215;53.130;6.408;2022-08-30T09:15:50;0.90;;;0.70;;
33930;SDS011;20215;53.130;6.408;2022-08-30T09:18:19;0.85;;;0.75;;
33930;SDS011;20215;53.130;6.408;2022-08-30T09:21:05;2.33;;;0.88;;
33930;SDS011;20215;53.130;6.408;2022-08-30T09:23:31;0.63;;;0.50;;
33930;SDS011;20215;53.130;6.408;2022-08-30T09:25:58;1.08;;;0.55;;
33930;SDS011;20215;53.130;6.408;2022-08-30T09:28:27;0.60;;;0.57;;
33930;SDS011;20215;53.130;6.408;2022-08-30T09:31:06;1.10;;;0.50;;
33930;SDS011;20215;53.130;6.408;2022-08-30T09:33:40;0.40;;;0.40;;
33930;SDS011;20215;53.130;6.408;2022-08-30T09:36:27;0.82;;;0.50;;
33930;SDS011;20215;53.130;6.408;2022-08-30T09:39:00;1.75;;;0.85;;
33930;SDS011;20215;53.130;6.408;2022-08-30T09:41:39;1.00;;;0.40;;
33930;SDS011;20215;53.130;6.408;2022-08-30T09:44:20;1.48;;;0.75;;
33930;SDS011;20215;53.130;6.408;2022-08-30T09:46:54;0.82;;;0.65;;
33930;SDS011;20215;53.130;6.408;2022-08-30T09:51:54;0.45;;;0.45;;
33930;SDS011;20215;53.130;6.408;2022-08-30T10:00:18;0.35;;;0.35;;
33930;SDS011;20215;53.130;6.408;2022-08-30T10:05:46;0.60;;;0.40;;
33930;SDS011;20215;53.130;6.408;2022-08-30T10:12:05;0.50;;;0.50;;
33930;SDS011;20215;53.130;6.408;2022-08-30T10:15:02;1.30;;;0.70;;
33930;SDS011;20215;53.130;6.408;2022-08-30T10:20:36;0.82;;;0.63;;
33930;SDS011;20215;53.130;6.408;2022-08-30T10:23:14;0.88;;;0.47;;
33930;SDS011;20215;53.130;6.408;2022-08-30T10:25:56;0.82;;;0.70;;
33930;SDS011;20215;53.130;6.408;2022-08-30T10:28:36;0.60;;;0.50;;
33930;SDS011;20215;53.130;6.408;2022-08-30T10:31:26;0.95;;;0.60;;
33930;SDS011;20215;53.130;6.408;2022-08-30T10:34:00;0.82;;;0.68;;
33930;SDS011;20215;53.130;6.408;2022-08-30T10:36:32;0.60;;;0.60;;
33930;SDS011;20215;53.130;6.408;2022-08-30T10:39:04;1.58;;;0.47;;
33930;SDS011;20215;53.130;6.408;2022-08-30T10:41:35;0.80;;;0.50;;
33930;SDS011;20215;53.130;6.408;2022-08-30T10:46:54;1.63;;;0.60;;
33930;SDS011;20215;53.130;6.408;2022-08-30T10:49:39;1.05;;;0.50;;
33930;SDS011;20215;53.130;6.408;2022-08-30T10:52:28;0.50;;;0.40;;
33930;SDS011;20215;53.130;6.408;2022-08-30T10:55:18;1.00;;;0.70;;
33930;SDS011;20215;53.130;6.408;2022-08-30T10:57:48;0.60;;;0.60;;
33930;SDS011;20215;53.130;6.408;2022-08-30T11:00:21;1.13;;;0.60;;
33930;SDS011;20215;53.130;6.408;2022-08-30T11:06:18;0.70;;;0.70;;
33930;SDS011;20215;53.130;6.408;2022-08-30T11:14:09;1.02;;;0.60;;
33930;SDS011;20215;53.130;6.408;2022-08-30T11:16:41;1.15;;;0.65;;
33930;SDS011;20215;53.130;6.408;2022-08-30T11:19:27;0.70;;;0.55;;
33930;SDS011;20215;53.130;6.408;2022-08-30T11:22:07;0.50;;;0.50;;
33930;SDS011;20215;53.130;6.408;2022-08-30T11:48:53;1.05;;;0.75;;
33930;SDS011;20215;53.130;6.408;2022-08-30T11:54:23;1.02;;;0.80;;
33930;SDS011;20215;53.130;6.408;2022-08-30T12:03:00;0.80;;;0.80;;
33930;SDS011;20215;53.130;6.408;2022-08-30T12:10:45;0.70;;;0.70;;
33930;SDS011;20215;53.130;6.408;2022-08-30T12:15:59;0.70;;;0.70;;
33930;SDS011;20215;53.130;6.408;2022-08-30T12:18:29;0.77;;;0.75;;
33930;SDS011;20215;53.130;6.408;2022-08-30T12:21:02;0.80;;;0.75;;
33930;SDS011;20215;53.130;6.408;2022-08-30T12:26:10;0.70;;;0.70;;
33930;SDS011;20215;53.130;6.408;2022-08-30T12:28:38;0.63;;;0.60;;
33930;SDS011;20215;53.130;6.408;2022-08-30T12:31:08;0.77;;;0.77;;
33930;SDS011;20215;53.130;6.408;2022-08-30T12:33:41;0.60;;;0.50;;
33930;SDS011;20215;53.130;6.408;2022-08-30T12:36:13;0.60;;;0.60;;
33930;SDS011;20215;53.130;6.408;2022-08-30T12:38:40;0.60;;;0.60;;
33930;SDS011;20215;53.130;6.408;2022-08-30T12:41:06;0.65;;;0.60;;
33930;SDS011;20215;53.130;6.408;2022-08-30T12:43:34;0.70;;;0.70;;
33930;SDS011;20215;53.130;6.408;2022-08-30T12:46:03;0.77;;;0.60;;
33930;SDS011;20215;53.130;6.408;2022-08-30T12:48:36;0.70;;;0.70;;
33930;SDS011;20215;53.130;6.408;2022-08-30T12:51:04;1.05;;;0.95;;
33930;SDS011;20215;53.130;6.408;2022-08-30T12:53:35;1.05;;;0.82;;
33930;SDS011;20215;53.130;6.408;2022-08-30T12:56:13;0.70;;;0.70;;
33930;SDS011;20215;53.130;6.408;2022-08-30T12:58:48;1.92;;;0.68;;
33930;SDS011;20215;53.130;6.408;2022-08-30T13:03:42;1.23;;;0.85;;
33930;SDS011;20215;53.130;6.408;2022-08-30T13:06:33;1.58;;;0.85;;
33930;SDS011;20215;53.130;6.408;2022-08-30T13:09:01;0.80;;;0.80;;
33930;SDS011;20215;53.130;6.408;2022-08-30T13:11:26;1.90;;;0.70;;
33930;SDS011;20215;53.130;6.408;2022-08-30T13:13:53;4.18;;;1.05;;
33930;SDS011;20215;53.130;6.408;2022-08-30T13:21:55;1.27;;;0.93;;
33930;SDS011;20215;53.130;6.408;2022-08-30T13:24:22;1.00;;;0.63;;
33930;SDS011;20215;53.130;6.408;2022-08-30T13:26:49;1.20;;;0.98;;
33930;SDS011;20215;53.130;6.408;2022-08-30T13:29:18;3.80;;;0.90;;
33930;SDS011;20215;53.130;6.408;2022-08-30T13:31:46;1.80;;;0.70;;
33930;SDS011;20215;53.130;6.408;2022-08-30T13:34:12;1.27;;;0.55;;
33930;SDS011;20215;53.130;6.408;2022-08-30T13:36:48;0.90;;;0.70;;
33930;SDS011;20215;53.130;6.408;2022-08-30T13:39:16;2.20;;;0.93;;
33930;SDS011;20215;53.130;6.408;2022-08-30T13:41:42;0.85;;;0.75;;
33930;SDS011;20215;53.130;6.408;2022-08-30T13:44:08;1.02;;;0.70;;
33930;SDS011;20215;53.130;6.408;2022-08-30T13:46:34;0.70;;;0.60;;
33930;SDS011;20215;53.130;6.408;2022-08-30T13:49:06;1.70;;;0.70;;
33930;SDS011;20215;53.130;6.408;2022-08-30T13:51:39;1.02;;;0.68;;
33930;SDS011;20215;53.130;6.408;2022-08-30T13:54:04;0.77;;;0.50;;
33930;SDS011;20215;53.130;6.408;2022-08-30T13:56:30;0.77;;;0.70;;
33930;SDS011;20215;53.130;6.408;2022-08-30T13:58:56;0.50;;;0.50;;
33930;SDS011;20215;53.130;6.408;2022-08-30T14:01:24;1.83;;;0.70;;
33930;SDS011;20215;53.130;6.408;2022-08-30T14:03:50;2.17;;;0.70;;
33930;SDS011;20215;53.130;6.408;2022-08-30T14:06:16;3.33;;;1.02;;
33930;SDS011;20215;53.130;6.408;2022-08-30T14:08:42;4.32;;;0.60;;
33930;SDS011;20215;53.130;6.408;2022-08-30T14:11:08;0.95;;;0.60;;
33930;SDS011;20215;53.130;6.408;2022-08-30T14:13:37;0.60;;;0.60;;
33930;SDS011;20215;53.130;6.408;2022-08-30T14:16:06;2.95;;;0.98;;
33930;SDS011;20215;53.130;6.408;2022-08-30T14:18:32;0.73;;;0.65;;
33930;SDS011;20215;53.130;6.408;2022-08-30T14:20:58;0.82;;;0.68;;
33930;SDS011;20215;53.130;6.408;2022-08-30T14:23:24;0.90;;;0.55;;
33930;SDS011;20215;53.130;6.408;2022-08-30T14:25:51;3.83;;;0.70;;
33930;SDS011;20215;53.130;6.408;2022-08-30T14:28:17;5.78;;;1.13;;
33930;SDS011;20215;53.130;6.408;2022-08-30T14:30:44;2.70;;;1.05;;
33930;SDS011;20215;53.130;6.408;2022-08-30T14:33:10;14.73;;;1.13;;
33930;SDS011;20215;53.130;6.408;2022-08-30T14:35:36;4.00;;;1.13;;
33930;SDS011;20215;53.130;6.408;2022-08-30T14:38:02;4.50;;;1.42;;
33930;SDS011;20215;53.130;6.408;2022-08-30T14:40:28;2.65;;;1.08;;
33930;SDS011;20215;53.130;6.408;2022-08-30T14:42:54;8.30;;;1.75;;
33930;SDS011;20215;53.130;6.408;2022-08-30T14:45:19;2.58;;;1.00;;
33930;SDS011;20215;53.130;6.408;2022-08-30T14:47:45;4.70;;;1.42;;
33930;SDS011;20215;53.130;6.408;2022-08-30T14:50:11;5.05;;;1.35;;
33930;SDS011;20215;53.130;6.408;2022-08-30T14:52:37;1.30;;;0.90;;
33930;SDS011;20215;53.130;6.408;2022-08-30T14:55:05;3.40;;;1.00;;
33930;SDS011;20215;53.130;6.408;2022-08-30T14:57:32;2.38;;;1.35;;
33930;SDS011;20215;53.130;6.408;2022-08-30T14:59:57;2.28;;;0.93;;
33930;SDS011;20215;53.130;6.408;2022-08-30T15:02:23;2.72;;;0.82;;
33930;SDS011;20215;53.130;6.408;2022-08-30T15:04:48;3.60;;;1.55;;
33930;SDS011;20215;53.130;6.408;2022-08-30T15:07:14;2.60;;;0.95;;
33930;SDS011;20215;53.130;6.408;2022-08-30T15:09:40;4.72;;;1.50;;
33930;SDS011;20215;53.130;6.408;2022-08-30T15:12:06;6.05;;;1.80;;
33930;SDS011;20215;53.130;6.408;2022-08-30T15:14:32;5.32;;;1.45;;
33930;SDS011;20215;53.130;6.408;2022-08-30T15:16:58;5.28;;;1.13;;
33930;SDS011;20215;53.130;6.408;2022-08-30T15:19:26;2.15;;;0.90;;
33930;SDS011;20215;53.130;6.408;2022-08-30T15:21:53;1.30;;;0.70;;
33930;SDS011;20215;53.130;6.408;2022-08-30T15:24:20;0.65;;;0.55;;
33930;SDS011;20215;53.130;6.408;2022-08-30T15:26:46;1.77;;;0.80;;
33930;SDS011;20215;53.130;6.408;2022-08-30T15:29:13;1.83;;;0.80;;
33930;SDS011;20215;53.130;6.408;2022-08-30T15:31:41;1.20;;;0.77;;
33930;SDS011;20215;53.130;6.408;2022-08-30T15:34:08;4.22;;;0.70;;
33930;SDS011;20215;53.130;6.408;2022-08-30T15:36:38;3.70;;;1.10;;
33930;SDS011;20215;53.130;6.408;2022-08-30T15:39:05;1.80;;;0.73;;
33930;SDS011;20215;53.130;6.408;2022-08-30T15:41:31;1.95;;;0.85;;
33930;SDS011;20215;53.130;6.408;2022-08-30T15:43:57;4.70;;;1.17;;
33930;SDS011;20215;53.130;6.408;2022-08-30T15:48:55;1.63;;;0.52;;
33930;SDS011;20215;53.130;6.408;2022-08-30T15:51:28;3.17;;;0.70;;
33930;SDS011;20215;53.130;6.408;2022-08-30T15:53:56;2.88;;;0.68;;
33930;SDS011;20215;53.130;6.408;2022-08-30T15:56:21;1.45;;;0.90;;
33930;SDS011;20215;53.130;6.408;2022-08-30T15:58:47;0.80;;;0.40;;
33930;SDS011;20215;53.130;6.408;2022-08-30T16:01:13;0.80;;;0.73;;
33930;SDS011;20215;53.130;6.408;2022-08-30T16:03:40;1.15;;;0.43;;
33930;SDS011;20215;53.130;6.408;2022-08-30T16:06:10;1.55;;;0.70;;
33930;SDS011;20215;53.130;6.408;2022-08-30T16:11:04;0.60;;;0.52;;
33930;SDS011;20215;53.130;6.408;2022-08-30T16:13:32;1.15;;;0.60;;
33930;SDS011;20215;53.130;6.408;2022-08-30T16:16:04;1.60;;;0.38;;
33930;SDS011;20215;53.130;6.408;2022-08-30T16:18:31;1.25;;;0.40;;
33930;SDS011;20215;53.130;6.408;2022-08-30T16:21:09;1.35;;;0.80;;
33930;SDS011;20215;53.130;6.408;2022-08-30T16:23:38;1.48;;;0.55;;
33930;SDS011;20215;53.130;6.408;2022-08-30T16:26:05;0.90;;;0.80;;
33930;SDS011;20215;53.130;6.408;2022-08-30T16:28:31;0.60;;;0.40;;